メインページ
METAR-TAF:

METAR-TAF

空港 :

ヘルシンキ, フィンランド

ヘルシンキ・ヴァンター国際空港

緯度: 60-19N, 経度: 024-58E, 海抜: 51m

現時点の気象観測

当レポートは10分前の23:20(UTC)に作成
南西の風 5kt
気温 -1°C
湿度 86%
気圧 1005 hPa
視程10km以上
1,500メートル以下は雲なし、積乱雲なし

METAR: EFHK 232320Z 23005KT CAVOK M01/M03 Q1005 NOSIG

時間: 02:30 (23:30 UTC)

予報

当レポートは2時間58分前の20:32(UTC)に作成
予報は23日の 21時(UTC)から 24日の 21時(UTC)まで有効
西の風 5kt
視程10km以上
1,500メートル以下は雲なし、積乱雲なし
24日の 08時(UTC)から 24日の 16時(UTC)まで一時的に
高度4000ftの雲は散在している, 積乱雲.

TAF: EFHK 232032Z 2321/2421 26005KT CAVOK TEMPO 2408/2416 SCT040CB

4,000以上の空港の気象観測と天気予報(METAR報とTAF報)

利用可能な観測所は地図上に黄色い丸と赤い丸で示す。

丸の上にカーソルを重ねると観測所名を参照できる。

次にクリックすると気象観測と天気予報を参照できる。

マップの切り替え:黒色「×」印の緑ボタンをクリックして拡大、「-」印の緑ボタンをクリックして縮小、緑色の三角印をクリックして隣りの地図に切り替え


METAR-TAF: